Time;durP1;ratioP1;P1;durP2;ratioP2;P2;SDS_P1;SDS_P2;PMS_P1;PMS_P2;Temp;Humidity;BMP_temperature;BMP_pressure;BME280_temperature;BME280_humidity;BME280_pressure;Samples;Min_cycle;Max_cycle;Signal;HPM_P1;HPM_P2
2022/04/24 00:00:25;;;;;;;6.67;4.43;;;;;;;13.47;70.81;96587.06;4881565;29;20248;-88
2022/04/24 00:02:54;;;;;;;8.73;4.60;;;;;;;13.66;71.25;96629.19;4901581;29;20232;-88
2022/04/24 00:05:21;;;;;;;5.30;4.60;;;;;;;13.48;71.61;96604.31;4901144;29;20218;-85
2022/04/24 00:07:50;;;;;;;7.00;4.67;;;;;;;13.60;71.17;96609.56;4902725;29;20235;-87
2022/04/24 00:10:18;;;;;;;8.60;4.67;;;;;;;13.62;71.19;96618.09;4899015;29;20213;-85
2022/04/24 00:12:46;;;;;;;8.23;4.27;;;;;;;13.71;71.29;96627.09;4898930;29;20207;-85
2022/04/24 00:15:16;;;;;;;5.90;4.23;;;;;;;13.69;70.42;96624.59;4899869;29;20290;-89
2022/04/24 00:17:43;;;;;;;5.93;3.80;;;;;;;13.35;70.26;96580.88;4892888;29;20287;-90
2022/04/24 00:20:12;;;;;;;7.20;4.17;;;;;;;13.38;70.46;96616.25;4897875;29;20227;-88
2022/04/24 00:22:40;;;;;;;9.73;4.20;;;;;;;13.38;70.72;96622.28;4902444;29;20191;-84
2022/04/24 00:25:10;;;;;;;7.90;3.70;;;;;;;13.54;70.77;96645.59;4901964;29;20205;-87
2022/04/24 00:27:38;;;;;;;7.17;4.60;;;;;;;13.52;70.63;96648.25;4902607;29;20190;-91
2022/04/24 00:30:05;;;;;;;5.43;4.20;;;;;;;13.16;70.82;96600.34;4902943;29;20207;-88
2022/04/24 00:32:33;;;;;;;5.53;4.10;;;;;;;12.86;72.52;96611.69;4901842;29;20198;-87
2022/04/24 00:35:00;;;;;;;8.00;4.60;;;;;;;12.84;74.07;96638.69;4902648;29;20199;-89
2022/04/24 00:37:30;;;;;;;5.13;4.00;;;;;;;12.61;74.86;96645.25;4916782;29;20255;-89
2022/04/24 00:39:57;;;;;;;8.43;4.27;;;;;;;12.39;75.56;96646.63;4893055;29;20221;-88
2022/04/24 00:42:25;;;;;;;8.50;4.60;;;;;;;12.32;76.80;96653.97;4899218;29;20250;-87
2022/04/24 00:44:53;;;;;;;8.87;4.37;;;;;;;12.33;76.08;96639.22;4902415;29;20234;-90
2022/04/24 00:47:30;;;;;;;8.07;4.03;;;;;;;12.55;75.31;96656.03;4902319;29;20196;-88
2022/04/24 00:50:00;;;;;;;6.10;4.13;;;;;;;12.45;75.86;96647.13;4902095;29;20201;-91
2022/04/24 00:52:29;;;;;;;6.37;4.03;;;;;;;12.20;76.40;96639.09;4902353;29;20215;-88
2022/04/24 00:54:57;;;;;;;8.57;4.63;;;;;;;12.20;77.47;96647.72;4902307;29;20200;-88
2022/04/24 00:57:26;;;;;;;9.47;3.87;;;;;;;11.91;78.37;96635.59;4902308;29;20190;-87
2022/04/24 00:59:54;;;;;;;5.10;3.90;;;;;;;11.85;78.50;96640.31;4901928;29;20263;-88
2022/04/24 01:02:24;;;;;;;6.60;4.03;;;;;;;11.71;79.53;96643.69;4901500;29;20197;-91
2022/04/24 01:04:51;;;;;;;6.57;4.03;;;;;;;11.80;79.89;96663.06;4900488;29;20196;-88
2022/04/24 01:07:19;;;;;;;5.97;4.07;;;;;;;11.55;80.19;96627.28;4899948;29;20210;-86
2022/04/24 01:09:46;;;;;;;6.77;4.23;;;;;;;11.54;79.81;96627.38;4893047;29;20254;-85
2022/04/24 01:12:13;;;;;;;5.47;4.30;;;;;;;11.42;79.80;96601.19;4886459;29;20205;-86
2022/04/24 01:14:41;;;;;;;8.10;4.53;;;;;;;11.68;79.39;96643.88;4886366;29;20219;-88
2022/04/24 01:17:11;;;;;;;5.17;4.20;;;;;;;11.91;79.61;96661.53;4885812;29;20196;-86
2022/04/24 01:19:38;;;;;;;4.97;4.07;;;;;;;11.74;79.00;96647.88;4887260;29;20225;-86
2022/04/24 01:22:07;;;;;;;8.77;5.07;;;;;;;11.62;78.87;96622.59;4895561;29;20691;-86
2022/04/24 01:24:36;;;;;;;7.13;5.07;;;;;;;11.73;79.31;96652.22;4886876;29;20214;-89
2022/04/24 01:27:04;;;;;;;7.03;4.77;;;;;;;11.81;78.62;96651.78;4885008;29;20232;-84
2022/04/24 01:29:33;;;;;;;7.63;4.53;;;;;;;11.93;78.85;96661.47;4883590;29;20284;-87
2022/04/24 01:32:01;;;;;;;6.23;4.47;;;;;;;12.12;77.42;96660.31;4889511;29;20717;-89
2022/04/24 01:34:28;;;;;;;6.97;4.57;;;;;;;12.13;76.99;96619.63;4875992;29;20217;-87
2022/04/24 01:36:56;;;;;;;8.80;4.63;;;;;;;12.32;76.03;96619.38;4875851;29;20462;-88
2022/04/24 01:39:24;;;;;;;10.87;6.07;;;;;;;12.66;75.02;96661.44;4874754;29;20232;-85
2022/04/24 01:41:51;;;;;;;8.97;5.73;;;;;;;12.58;75.17;96636.81;4874385;29;20226;-88
2022/04/24 01:44:19;;;;;;;8.23;5.13;;;;;;;12.60;74.22;96617.63;4874525;29;20203;-87
2022/04/24 01:46:46;;;;;;;8.87;4.83;;;;;;;12.68;74.30;96609.38;4875475;29;20596;-90
2022/04/24 01:49:13;;;;;;;7.10;5.13;;;;;;;12.89;73.36;96642.69;4874172;29;20231;-87
2022/04/24 01:51:41;;;;;;;6.00;5.33;;;;;;;12.99;73.75;96653.34;4875401;29;20684;-85
2022/04/24 01:54:12;;;;;;;7.33;4.97;;;;;;;12.89;74.16;96640.09;4875497;29;20226;-85
2022/04/24 01:56:41;;;;;;;10.97;5.60;;;;;;;13.01;72.85;96641.94;4876127;29;20188;-89
2022/04/24 01:59:08;;;;;;;8.37;5.77;;;;;;;12.98;72.97;96644.69;4875102;29;20290;-86
2022/04/24 02:01:38;;;;;;;9.83;5.90;;;;;;;12.74;73.01;96609.84;4877147;29;20228;-88
2022/04/24 02:04:07;;;;;;;9.37;5.40;;;;;;;12.66;72.90;96609.47;4877140;29;20610;-86
2022/04/24 02:06:34;;;;;;;8.03;4.90;;;;;;;12.68;73.83;96638.78;4879683;29;20402;-84
2022/04/24 02:09:01;;;;;;;8.73;5.13;;;;;;;12.47;74.04;96619.28;4881325;29;20191;-89
2022/04/24 02:11:30;;;;;;;10.30;5.37;;;;;;;12.66;74.34;96651.03;4875420;29;20203;-90
2022/04/24 02:14:02;;;;;;;11.97;5.53;;;;;;;12.61;73.49;96632.28;4873718;29;20671;-90
2022/04/24 02:16:29;;;;;;;8.13;5.10;;;;;;;12.33;73.87;96650.44;4873419;29;20196;-89
2022/04/24 02:18:56;;;;;;;10.07;6.40;;;;;;;11.85;74.97;96635.13;4874958;29;20189;-84
2022/04/24 02:21:23;;;;;;;8.83;5.67;;;;;;;11.42;76.55;96658.25;4874629;29;20201;-92
2022/04/24 02:23:51;;;;;;;7.97;4.53;;;;;;;10.97;78.47;96655.56;4873837;29;20194;-90
2022/04/24 02:26:18;;;;;;;7.37;4.63;;;;;;;10.78;79.84;96656.63;4874976;29;20633;-92
2022/04/24 02:28:47;;;;;;;8.00;5.40;;;;;;;10.71;79.99;96661.28;4874930;29;20683;-92
2022/04/24 02:31:14;;;;;;;8.60;5.23;;;;;;;10.55;80.79;96632.75;4875077;29;20595;-91
2022/04/24 02:33:41;;;;;;;6.50;5.43;;;;;;;10.51;80.89;96620.88;4857904;29;20197;-91
2022/04/24 02:36:09;;;;;;;7.20;5.80;;;;;;;10.70;81.14;96638.88;4873530;29;20611;-87
2022/04/24 02:38:36;;;;;;;6.40;5.23;;;;;;;10.78;81.22;96639.31;4899517;29;20195;-88
2022/04/24 02:41:03;;;;;;;6.57;4.90;;;;;;;10.88;80.44;96634.50;4899443;29;20239;-86
2022/04/24 02:43:30;;;;;;;7.27;4.67;;;;;;;10.66;79.68;96595.94;4900291;29;20192;-87
2022/04/24 02:45:57;;;;;;;8.37;5.17;;;;;;;10.94;80.71;96650.50;4899682;29;20271;-84
2022/04/24 02:48:27;;;;;;;7.07;4.77;;;;;;;11.02;80.46;96663.94;4890116;29;20196;-87
2022/04/24 02:50:57;;;;;;;6.47;5.30;;;;;;;10.99;80.85;96664.06;4874538;29;20196;-87
2022/04/24 02:53:27;;;;;;;8.07;4.77;;;;;;;11.10;80.35;96677.31;4874533;29;20200;-86
2022/04/24 02:55:54;;;;;;;7.30;5.03;;;;;;;11.26;79.80;96683.34;4874130;29;20200;-87
2022/04/24 02:58:22;;;;;;;5.47;4.67;;;;;;;11.16;79.83;96656.25;4874102;29;20193;-87
2022/04/24 03:00:50;;;;;;;8.13;4.53;;;;;;;11.45;78.56;96671.06;4888066;29;20231;-84
2022/04/24 03:03:21;;;;;;;6.73;4.80;;;;;;;11.35;78.31;96650.91;4872641;29;20206;-90
2022/04/24 03:05:49;;;;;;;10.27;5.80;;;;;;;11.34;78.01;96650.06;4888554;29;20707;-84
2022/04/24 03:08:18;;;;;;;10.17;6.67;;;;;;;11.34;78.28;96660.41;4883119;29;20273;-86
2022/04/24 03:10:46;;;;;;;10.60;6.30;;;;;;;11.38;79.08;96687.84;4873172;29;20228;-85
2022/04/24 03:13:13;;;;;;;9.13;5.70;;;;;;;11.44;79.04;96699.63;4872532;29;20197;-88
2022/04/24 03:15:42;;;;;;;10.63;5.87;;;;;;;11.32;79.13;96690.78;4874415;29;20192;-87
2022/04/24 03:18:11;;;;;;;11.73;6.47;;;;;;;11.33;79.64;96702.81;4872482;29;20204;-85
2022/04/24 03:20:39;;;;;;;7.43;5.50;;;;;;;11.01;80.24;96651.88;4873744;29;20338;-85
2022/04/24 03:23:08;;;;;;;9.00;6.30;;;;;;;10.99;80.16;96669.25;4874963;29;20698;-89
2022/04/24 03:25:37;;;;;;;8.20;5.87;;;;;;;11.41;79.93;96721.41;4875918;29;20685;-86
2022/04/24 03:28:08;;;;;;;9.60;6.43;;;;;;;11.51;79.06;96716.53;4875723;29;20648;-87
2022/04/24 03:30:36;;;;;;;7.60;5.57;;;;;;;11.44;78.67;96700.47;4879319;29;20286;-84
2022/04/24 03:33:04;;;;;;;7.50;6.47;;;;;;;11.38;78.66;96706.00;4878755;29;20196;-86
2022/04/24 03:39:08;;;;;;;13.23;8.30;;;;;;;11.05;80.83;96725.94;4889200;29;20601;-86
2022/04/24 03:41:36;;;;;;;10.50;8.00;;;;;;;11.09;81.36;96731.78;4892387;29;20291;-87
2022/04/24 03:44:04;;;;;;;9.47;7.33;;;;;;;11.14;81.00;96742.75;4876936;29;20209;-89
2022/04/24 03:46:32;;;;;;;11.37;7.67;;;;;;;10.95;80.69;96695.41;4877696;29;20588;-89
2022/04/24 03:48:59;;;;;;;8.13;6.20;;;;;;;11.42;79.76;96748.13;4877619;29;20278;-87
2022/04/24 03:51:28;;;;;;;9.70;6.47;;;;;;;11.66;78.81;96748.59;4860601;29;20290;-85
2022/04/24 03:53:56;;;;;;;10.07;5.97;;;;;;;11.68;77.47;96705.28;4877209;29;20229;-87
2022/04/24 03:56:26;;;;;;;12.00;6.80;;;;;;;12.22;76.31;96756.66;4876138;29;20207;-87
2022/04/24 03:58:55;;;;;;;11.10;8.57;;;;;;;12.16;76.33;96744.03;4877494;29;20196;-87
2022/04/24 04:01:24;;;;;;;11.73;8.53;;;;;;;12.05;77.26;96767.19;4860380;29;20269;-88
2022/04/24 04:03:56;;;;;;;9.90;6.40;;;;;;;12.14;77.19;96764.03;4877444;29;20695;-90
2022/04/24 04:06:23;;;;;;;8.57;6.80;;;;;;;12.31;75.83;96761.34;4883835;29;20209;-86
2022/04/24 04:08:51;;;;;;;10.87;7.57;;;;;;;12.21;75.96;96762.78;4887524;29;20685;-88
2022/04/24 04:11:18;;;;;;;15.63;9.23;;;;;;;12.11;76.97;96764.22;4877830;29;20204;-87
2022/04/24 04:13:46;;;;;;;13.33;9.17;;;;;;;12.18;75.95;96745.63;4876335;29;20261;-89
2022/04/24 04:16:13;;;;;;;11.77;8.90;;;;;;;12.28;75.57;96751.97;4886099;29;20200;-89
2022/04/24 04:18:40;;;;;;;13.17;9.13;;;;;;;12.27;75.93;96758.09;4883733;29;20193;-91
2022/04/24 04:21:09;;;;;;;14.03;9.70;;;;;;;12.24;76.10;96737.47;4897174;29;20224;-92
2022/04/24 04:23:37;;;;;;;12.67;8.20;;;;;;;12.53;74.83;96763.56;4877163;29;20202;-91
2022/04/24 04:26:04;;;;;;;12.27;8.43;;;;;;;12.24;74.86;96727.09;4877298;29;20197;-91
2022/04/24 04:28:34;;;;;;;12.43;7.80;;;;;;;12.53;74.80;96773.94;4875803;29;20571;-88
2022/04/24 04:31:02;;;;;;;11.93;7.23;;;;;;;12.63;75.18;96770.69;4876898;29;20248;-92
2022/04/24 04:33:29;;;;;;;13.33;7.40;;;;;;;12.63;73.50;96730.94;4877113;29;20247;-87
2022/04/24 04:35:56;;;;;;;10.03;7.33;;;;;;;13.06;72.28;96740.47;4876784;29;20197;-91
2022/04/24 04:38:24;;;;;;;13.33;6.90;;;;;;;13.75;70.78;96775.16;4875145;29;20194;-87
2022/04/24 04:40:51;;;;;;;10.13;7.00;;;;;;;13.98;69.39;96789.31;4874625;29;20242;-88
2022/04/24 04:43:18;;;;;;;13.13;8.37;;;;;;;14.28;68.61;96776.13;4876731;29;20188;-87
2022/04/24 04:45:47;;;;;;;11.70;8.80;;;;;;;14.46;67.50;96793.19;4875054;29;20196;-87
2022/04/24 04:48:14;;;;;;;11.33;6.70;;;;;;;14.53;66.77;96768.41;4875499;29;20286;-89
2022/04/24 04:50:41;;;;;;;9.23;6.20;;;;;;;14.85;66.69;96800.16;4875653;29;20211;-91
2022/04/24 04:53:10;;;;;;;7.40;6.17;;;;;;;15.00;65.45;96796.53;4877488;29;20200;-90
2022/04/24 04:55:37;;;;;;;11.63;6.83;;;;;;;14.99;65.66;96800.06;4876849;29;20250;-87
2022/04/24 04:58:11;;;;;;;8.93;5.67;;;;;;;15.26;64.79;96790.38;4876626;29;20286;-92
2022/04/24 05:00:38;;;;;;;7.47;5.77;;;;;;;15.21;64.50;96800.28;4874697;29;20236;-91
2022/04/24 05:03:06;;;;;;;9.47;5.57;;;;;;;15.36;64.35;96789.66;4874837;29;20288;-86
2022/04/24 05:05:36;;;;;;;6.93;5.10;;;;;;;15.48;64.68;96806.28;4881336;29;20211;-88
2022/04/24 05:08:03;;;;;;;8.23;5.83;;;;;;;15.64;64.05;96783.38;4869755;29;20576;-89
2022/04/24 05:10:31;;;;;;;10.40;5.10;;;;;;;15.72;63.59;96762.81;4875021;29;20203;-90
2022/04/24 05:12:59;;;;;;;9.10;5.70;;;;;;;16.02;62.63;96802.44;4876330;29;20199;-87
2022/04/24 05:15:26;;;;;;;8.03;5.63;;;;;;;15.98;62.15;96759.19;4876327;29;20197;-87
2022/04/24 05:17:54;;;;;;;12.97;6.20;;;;;;;16.07;62.70;96766.34;4875035;29;20299;-87
2022/04/24 05:20:21;;;;;;;8.47;5.40;;;;;;;16.36;61.82;96781.72;4876074;29;20642;-86
2022/04/24 05:22:49;;;;;;;7.40;5.63;;;;;;;16.37;61.76;96791.22;4876523;29;20199;-89
2022/04/24 05:25:19;;;;;;;10.13;5.70;;;;;;;16.59;61.99;96794.78;4876233;29;20577;-85
2022/04/24 05:27:49;;;;;;;11.37;5.77;;;;;;;16.55;61.88;96795.16;4875937;29;20194;-88
2022/04/24 05:30:17;;;;;;;10.33;6.17;;;;;;;16.38;61.96;96756.31;4876420;29;20650;-89
2022/04/24 05:32:51;;;;;;;10.07;6.17;;;;;;;16.61;61.82;96784.25;4875207;29;20263;-89
2022/04/24 05:35:20;;;;;;;9.13;6.40;;;;;;;16.81;61.53;96784.44;4877482;29;20189;-91
2022/04/24 05:37:48;;;;;;;13.63;7.70;;;;;;;17.08;61.12;96789.38;4880008;29;20249;-85
2022/04/24 05:40:15;;;;;;;14.37;6.47;;;;;;;17.40;60.24;96768.56;4883189;29;20238;-85
2022/04/24 05:42:52;;;;;;;9.53;5.87;;;;;;;17.50;60.24;96769.56;4883069;29;20194;-89
2022/04/24 05:45:22;;;;;;;9.00;6.13;;;;;;;17.41;59.87;96772.88;4874413;29;20282;-88
2022/04/24 05:47:56;;;;;;;9.33;5.97;;;;;;;17.74;58.73;96760.63;4890557;29;20213;-89
2022/04/24 05:50:28;;;;;;;9.40;5.90;;;;;;;18.02;58.18;96784.66;4858898;29;20222;-85
2022/04/24 05:52:57;;;;;;;9.13;6.43;;;;;;;18.07;58.14;96785.13;4875296;29;20205;-85
2022/04/24 05:55:25;;;;;;;8.00;5.67;;;;;;;18.04;58.64;96777.50;4875417;29;20648;-85
2022/04/24 05:57:54;;;;;;;7.97;5.83;;;;;;;17.84;59.00;96785.16;4875402;29;20604;-92
2022/04/24 06:00:22;;;;;;;9.20;6.03;;;;;;;17.78;58.74;96785.63;4877542;29;20332;-92
2022/04/24 06:02:54;;;;;;;8.33;6.40;;;;;;;17.86;58.59;96788.50;4858266;29;20255;-92
2022/04/24 06:05:23;;;;;;;9.27;6.00;;;;;;;17.69;58.35;96741.84;4878977;29;20247;-85
2022/04/24 06:08:01;;;;;;;12.07;6.60;;;;;;;18.10;57.77;96790.13;4881572;29;20478;-91
2022/04/24 06:10:28;;;;;;;10.97;5.63;;;;;;;18.29;57.47;96759.69;4874677;29;20724;-88
2022/04/24 06:12:56;;;;;;;8.07;5.40;;;;;;;18.41;57.20;96778.84;4876165;29;20214;-91
2022/04/24 06:15:27;;;;;;;9.10;6.90;;;;;;;18.48;57.40;96785.28;4873147;29;20204;-85
2022/04/24 06:21:43;;;;;;;10.07;7.00;;;;;;;18.69;56.21;96788.78;4878849;29;20773;-88
2022/04/24 06:24:25;;;;;;;9.33;6.07;;;;;;;18.94;55.50;96784.97;4881152;29;20231;-87
2022/04/24 06:27:01;;;;;;;9.43;5.80;;;;;;;18.83;55.12;96764.88;4882094;29;20297;-91
2022/04/24 06:29:42;;;;;;;9.73;6.47;;;;;;;18.76;55.31;96774.19;4898611;29;20203;-88
2022/04/24 06:33:37;;;;;;;8.90;5.57;;;;;;;19.13;54.79;96775.44;4876683;29;20238;-86
2022/04/24 06:36:09;;;;;;;9.70;5.67;;;;;;;19.19;54.01;96746.03;4884779;29;20210;-88
2022/04/24 06:38:44;;;;;;;11.13;5.40;;;;;;;19.42;53.89;96783.50;4882072;29;20217;-93
2022/04/24 06:41:14;;;;;;;10.03;5.87;;;;;;;19.66;53.27;96772.69;4876917;29;20330;-90
2022/04/24 06:43:44;;;;;;;13.17;6.50;;;;;;;19.78;53.38;96780.34;4874480;29;20207;-91
2022/04/24 06:46:14;;;;;;;12.47;6.47;;;;;;;19.98;52.26;96782.09;4887658;29;20230;-87
2022/04/24 06:48:41;;;;;;;9.57;5.50;;;;;;;19.97;51.81;96784.84;4912631;29;20208;-93
2022/04/24 06:51:08;;;;;;;7.67;4.93;;;;;;;20.09;51.78;96786.41;4897377;29;20200;-89
2022/04/24 06:53:38;;;;;;;13.90;5.20;;;;;;;20.23;51.38;96778.16;4898257;29;20306;-89
2022/04/24 06:56:05;;;;;;;7.23;4.57;;;;;;;20.35;50.24;96774.44;4880340;29;20203;-89
2022/04/24 06:58:33;;;;;;;8.53;4.30;;;;;;;20.19;49.63;96748.69;4877376;29;20207;-87
2022/04/24 07:01:07;;;;;;;8.53;4.30;;;;;;;19.97;50.63;96790.13;4881310;29;20724;-87
2022/04/24 07:03:35;;;;;;;7.43;4.80;;;;;;;19.71;50.91;96779.22;4881640;29;20214;-86
2022/04/24 07:06:07;;;;;;;10.73;5.40;;;;;;;19.46;51.80;96764.72;4886700;29;20259;-86
2022/04/24 07:08:35;;;;;;;16.63;9.30;;;;;;;19.71;51.34;96778.38;4882755;29;20853;-91
2022/04/24 07:11:04;;;;;;;8.03;4.53;;;;;;;20.10;50.89;96781.00;4881447;29;20202;-85
2022/04/24 07:13:36;;;;;;;7.07;4.60;;;;;;;20.21;49.91;96772.22;4875038;29;20202;-90
2022/04/24 07:16:03;;;;;;;10.67;5.67;;;;;;;20.59;50.28;96784.56;4873531;29;20720;-90
2022/04/24 07:18:32;;;;;;;10.33;4.10;;;;;;;20.81;49.72;96777.22;4873638;29;20196;-86
2022/04/24 07:21:00;;;;;;;10.97;4.60;;;;;;;20.85;48.61;96770.72;4873292;29;20231;-89
2022/04/24 07:23:28;;;;;;;9.03;4.30;;;;;;;20.79;49.21;96760.72;4873406;29;20691;-91
2022/04/24 07:25:55;;;;;;;9.97;3.83;;;;;;;21.11;47.88;96775.44;4872952;29;20204;-88
2022/04/24 07:28:25;;;;;;;8.60;4.70;;;;;;;20.97;48.59;96751.19;4889086;29;20203;-88
2022/04/24 07:30:52;;;;;;;8.93;3.80;;;;;;;21.15;48.82;96788.19;4861065;29;20205;-90
2022/04/24 07:33:26;;;;;;;4.63;3.40;;;;;;;20.53;48.83;96770.16;4873822;29;20220;-89
2022/04/24 07:36:04;;;;;;;6.23;3.40;;;;;;;20.77;48.45;96791.63;4874369;29;20192;-87
2022/04/24 07:38:32;;;;;;;7.33;3.30;;;;;;;20.97;48.10;96782.78;4872949;29;20696;-91
2022/04/24 07:41:03;;;;;;;7.13;2.50;;;;;;;21.03;47.54;96789.31;4874685;29;20329;-93
2022/04/24 07:43:30;;;;;;;4.30;2.90;;;;;;;20.49;49.04;96724.03;4857155;29;20204;-89
2022/04/24 07:45:57;;;;;;;4.37;2.60;;;;;;;20.07;49.71;96785.72;4875769;29;20202;-89
2022/04/24 07:48:25;;;;;;;4.63;2.43;;;;;;;20.24;50.34;96782.44;4873701;29;20223;-90
2022/04/24 07:51:19;;;;;;;4.93;2.63;;;;;;;20.58;49.81;96781.13;4877568;29;20690;-88
2022/04/24 07:53:55;;;;;;;6.80;3.10;;;;;;;20.67;50.17;96780.28;4875566;29;20210;-89
2022/04/24 07:56:25;;;;;;;4.73;3.00;;;;;;;20.61;49.33;96749.25;4873727;29;20680;-90
2022/04/24 07:58:54;;;;;;;3.90;2.90;;;;;;;20.06;51.17;96778.78;4874647;29;20192;-89
2022/04/24 08:01:27;;;;;;;5.10;2.50;;;;;;;20.50;50.53;96766.97;4882431;29;20239;-88
2022/04/24 08:03:57;;;;;;;6.17;3.00;;;;;;;20.62;50.37;96735.13;4880123;29;20303;-89
2022/04/24 08:06:28;;;;;;;6.67;2.80;;;;;;;20.62;50.08;96745.66;4888452;29;20523;-86
2022/04/24 08:08:55;;;;;;;7.83;2.90;;;;;;;20.37;50.69;96743.56;4881362;29;20211;-90
2022/04/24 08:11:28;;;;;;;7.00;2.80;;;;;;;20.76;50.02;96755.75;4875010;29;20188;-90
2022/04/24 08:13:58;;;;;;;5.03;3.33;;;;;;;20.69;49.92;96715.16;4876302;29;20224;-90
2022/04/24 08:16:27;;;;;;;6.67;3.27;;;;;;;20.88;49.80;96752.00;4877600;29;20213;-93
2022/04/24 08:18:54;;;;;;;7.43;3.00;;;;;;;21.14;49.34;96748.81;4875810;29;20229;-90
2022/04/24 08:21:22;;;;;;;10.20;2.70;;;;;;;21.22;49.36;96733.97;4891613;29;20657;-86
2022/04/24 08:23:49;;;;;;;6.13;3.10;;;;;;;21.44;49.03;96749.44;4876702;29;20208;-86
2022/04/24 08:26:18;;;;;;;6.80;2.70;;;;;;;21.23;49.74;96742.69;4875074;29;20310;-87
2022/04/24 08:28:47;;;;;;;7.80;3.07;;;;;;;21.18;50.50;96718.59;4875388;29;20253;-85
2022/04/24 08:31:14;;;;;;;6.50;3.43;;;;;;;21.11;50.81;96733.28;4874689;29;20200;-87
2022/04/24 08:33:41;;;;;;;7.53;3.47;;;;;;;20.90;50.38;96692.16;4876196;29;20213;-88
2022/04/24 08:36:09;;;;;;;11.23;4.00;;;;;;;21.39;50.12;96713.94;4876136;29;20204;-85
2022/04/24 08:38:36;;;;;;;8.80;3.23;;;;;;;21.70;49.03;96731.97;4875536;29;20223;-86
2022/04/24 08:41:04;;;;;;;9.50;3.47;;;;;;;21.14;50.44;96712.78;4878712;29;20221;-86
2022/04/24 08:43:32;;;;;;;10.13;4.07;;;;;;;21.32;50.64;96702.31;4880100;29;20206;-88
2022/04/24 08:46:03;;;;;;;8.40;3.07;;;;;;;21.45;49.67;96722.09;4880262;29;20210;-93
2022/04/24 08:48:43;;;;;;;13.33;3.40;;;;;;;21.36;49.84;96719.50;4881076;29;20210;-88
2022/04/24 08:51:22;;;;;;;9.00;3.37;;;;;;;21.41;49.76;96706.72;4882328;29;20205;-85
2022/04/24 08:53:57;;;;;;;10.67;4.27;;;;;;;21.65;49.49;96689.44;4878790;29;20287;-87
2022/04/24 08:56:25;;;;;;;8.37;3.20;;;;;;;21.81;49.11;96701.94;4861645;29;20689;-90
2022/04/24 08:58:55;;;;;;;10.33;3.87;;;;;;;21.42;49.81;96708.38;4878434;29;20584;-88
2022/04/24 09:01:23;;;;;;;8.47;3.63;;;;;;;21.44;49.84;96711.69;4860669;29;20327;-90
2022/04/24 09:03:50;;;;;;;9.73;3.77;;;;;;;21.54;49.86;96697.50;4866185;29;20195;-92
2022/04/24 09:06:24;;;;;;;9.20;3.50;;;;;;;21.91;48.53;96688.78;4881217;29;20213;-90
2022/04/24 09:09:06;;;;;;;8.60;3.80;;;;;;;21.93;48.59;96714.00;4890666;29;20204;-93
2022/04/24 09:11:36;;;;;;;8.57;3.57;;;;;;;21.90;48.98;96676.53;4861528;29;20595;-86
2022/04/24 09:14:15;;;;;;;8.07;4.27;;;;;;;21.57;49.22;96683.22;4875801;29;20198;-85
2022/04/24 09:16:48;;;;;;;6.10;3.20;;;;;;;21.52;49.75;96696.00;4875371;29;20203;-89
2022/04/24 09:19:23;;;;;;;7.23;3.30;;;;;;;21.36;50.14;96698.41;4878070;29;20249;-89
2022/04/24 09:22:00;;;;;;;12.57;3.60;;;;;;;21.23;49.92;96645.22;4876825;29;20231;-89
2022/04/24 09:24:45;;;;;;;10.27;3.57;;;;;;;21.91;48.72;96676.38;4878277;29;20741;-87
2022/04/24 09:27:22;;;;;;;10.43;3.90;;;;;;;21.61;48.65;96661.69;4874543;29;20206;-91
2022/04/24 09:30:13;;;;;;;8.57;3.63;;;;;;;21.90;48.43;96697.63;4877989;29;20289;-90
2022/04/24 09:32:53;;;;;;;11.00;3.53;;;;;;;21.80;47.97;96658.94;4875088;29;20645;-86
2022/04/24 09:35:32;;;;;;;6.53;3.60;;;;;;;21.56;48.99;96650.75;4877868;29;20262;-87
2022/04/24 09:38:13;;;;;;;8.53;2.93;;;;;;;21.73;48.61;96664.94;4877222;29;20191;-92
2022/04/24 09:40:49;;;;;;;8.43;4.03;;;;;;;21.80;48.82;96642.31;4874621;29;20206;-89
2022/04/24 09:43:19;;;;;;;8.07;3.47;;;;;;;21.85;48.72;96667.28;4878596;29;20729;-91
2022/04/24 09:45:53;;;;;;;7.53;3.53;;;;;;;21.91;48.19;96668.47;4875603;29;20217;-89
2022/04/24 09:48:25;;;;;;;5.97;3.13;;;;;;;21.83;47.23;96626.22;4876237;29;20292;-88
2022/04/24 09:50:56;;;;;;;11.70;3.50;;;;;;;21.63;47.79;96662.38;4859734;29;20278;-91
2022/04/24 09:53:28;;;;;;;6.87;3.70;;;;;;;21.56;48.93;96663.09;4877175;29;20192;-91
2022/04/24 09:55:58;;;;;;;5.77;3.23;;;;;;;21.96;47.72;96649.56;4861844;29;20210;-89
2022/04/24 09:58:27;;;;;;;9.73;3.87;;;;;;;22.19;47.30;96656.91;4896422;29;20194;-88
2022/04/24 10:00:54;;;;;;;9.27;3.27;;;;;;;22.33;46.94;96614.16;4899226;29;20290;-88
2022/04/24 10:03:22;;;;;;;8.53;3.60;;;;;;;22.71;46.26;96655.22;4896205;29;20224;-92
2022/04/24 10:05:52;;;;;;;10.63;3.73;;;;;;;22.50;46.45;96639.69;4881814;29;20254;-90
2022/04/24 10:08:26;;;;;;;6.43;3.13;;;;;;;22.38;47.05;96626.91;4895386;29;20622;-88
2022/04/24 10:11:15;;;;;;;8.03;3.80;;;;;;;22.25;46.16;96637.84;4890264;29;20194;-89
2022/04/24 10:13:48;;;;;;;8.93;3.23;;;;;;;22.06;47.64;96648.53;4877414;29;20214;-93
2022/04/24 10:16:47;;;;;;;9.07;3.57;;;;;;;21.89;47.55;96644.06;4877838;29;20707;-90
2022/04/24 10:19:40;;;;;;;9.10;3.37;;;;;;;21.97;48.38;96641.50;4880336;29;20294;-86
2022/04/24 10:22:27;;;;;;;8.07;3.43;;;;;;;22.35;45.20;96640.38;4878584;29;20312;-89
2022/04/24 10:25:03;;;;;;;8.50;3.70;;;;;;;22.54;43.96;96642.88;4890324;29;20243;-88
2022/04/24 10:27:45;;;;;;;9.70;3.70;;;;;;;22.29;44.26;96627.81;4875390;29;20696;-90
2022/04/24 10:30:22;;;;;;;7.70;3.50;;;;;;;22.36;45.38;96621.75;4874747;29;20687;-86
2022/04/24 10:33:15;;;;;;;7.13;3.47;;;;;;;22.90;43.81;96635.69;4873153;29;20644;-88
2022/04/24 10:35:53;;;;;;;5.27;3.00;;;;;;;22.93;43.96;96640.69;4867663;29;20260;-86
2022/04/24 10:38:32;;;;;;;8.03;3.17;;;;;;;22.58;43.40;96616.03;4874303;29;20650;-86
2022/04/24 10:40:59;;;;;;;7.43;2.80;;;;;;;22.64;43.58;96631.25;4875844;29;20205;-87
2022/04/24 10:43:35;;;;;;;9.23;3.77;;;;;;;22.76;43.60;96623.91;4874455;29;20710;-87
2022/04/24 10:46:03;;;;;;;7.83;3.10;;;;;;;23.01;43.39;96622.25;4877206;29;20209;-90
2022/04/24 10:48:38;;;;;;;16.23;3.10;;;;;;;22.91;43.66;96621.53;4875600;29;20702;-88
2022/04/24 10:51:05;;;;;;;8.33;3.33;;;;;;;22.99;44.79;96632.13;4874154;29;20216;-87
2022/04/24 10:53:55;;;;;;;8.90;3.10;;;;;;;22.88;45.06;96622.66;4874094;29;20270;-90
2022/04/24 10:56:24;;;;;;;8.30;3.23;;;;;;;22.77;45.34;96587.78;4871939;29;20206;-90
2022/04/24 10:58:51;;;;;;;7.40;2.60;;;;;;;22.88;44.80;96621.81;4873728;29;20215;-88
2022/04/24 11:01:35;;;;;;;13.53;4.00;;;;;;;22.76;45.85;96610.69;4859314;29;20718;-89
2022/04/24 11:04:07;;;;;;;7.37;3.17;;;;;;;22.58;46.62;96594.94;4873268;29;20201;-88
2022/04/24 11:06:38;;;;;;;9.47;3.37;;;;;;;22.97;46.21;96619.09;4874350;29;20702;-85
2022/04/24 11:09:11;;;;;;;8.90;3.43;;;;;;;22.83;46.46;96587.97;4871778;29;20561;-89
2022/04/24 11:11:55;;;;;;;9.13;4.20;;;;;;;22.57;46.26;96613.50;4880955;29;20217;-85
2022/04/24 11:14:25;;;;;;;12.70;4.37;;;;;;;22.92;45.98;96604.69;4862607;29;20507;-88
2022/04/24 11:17:01;;;;;;;8.90;3.33;;;;;;;23.11;43.93;96607.94;4875137;29;20203;-87
2022/04/24 11:19:38;;;;;;;7.93;3.83;;;;;;;23.25;45.74;96611.78;4879197;29;20210;-88
2022/04/24 11:22:14;;;;;;;7.87;3.37;;;;;;;22.78;45.64;96578.84;4879956;29;20678;-90
2022/04/24 11:24:48;;;;;;;8.87;3.43;;;;;;;22.78;46.84;96603.47;4877843;29;20195;-91
2022/04/24 11:27:24;;;;;;;8.83;3.53;;;;;;;22.85;45.96;96608.94;4878883;29;20226;-86
2022/04/24 11:29:55;;;;;;;12.73;3.67;;;;;;;23.00;45.24;96596.84;4878863;29;20259;-85
2022/04/24 11:32:25;;;;;;;8.97;3.50;;;;;;;22.83;45.49;96566.84;4898483;29;20196;-85
2022/04/24 11:34:54;;;;;;;7.53;3.30;;;;;;;23.13;44.08;96598.03;4890987;29;20630;-85
2022/04/24 11:37:22;;;;;;;8.87;3.27;;;;;;;23.32;44.16;96594.34;4894574;29;20199;-86
2022/04/24 11:40:03;;;;;;;13.13;3.20;;;;;;;23.28;43.66;96593.81;4892183;29;20270;-85
2022/04/24 11:42:32;;;;;;;7.80;2.90;;;;;;;23.37;44.23;96577.03;4889620;29;20225;-88
2022/04/24 11:50:51;;;;;;;8.50;2.93;;;;;;;23.49;43.43;96547.66;4877223;29;20218;-90
2022/04/24 11:53:40;;;;;;;9.87;2.93;;;;;;;23.46;44.02;96548.81;4878810;29;20248;-85
2022/04/24 11:56:09;;;;;;;7.20;3.37;;;;;;;23.60;43.54;96574.63;4874560;29;20218;-91
2022/04/24 11:58:38;;;;;;;14.50;3.90;;;;;;;23.61;43.94;96551.66;4876953;29;20208;-88
2022/04/24 12:01:13;;;;;;;8.57;3.57;;;;;;;23.85;42.64;96552.53;4876775;29;20240;-89